Time;durP1;ratioP1;P1;durP2;ratioP2;P2;SDS_P1;SDS_P2;PMS_P1;PMS_P2;Temp;Humidity;BMP_temperature;BMP_pressure;BME280_temperature;BME280_humidity;BME280_pressure;Samples;Min_cycle;Max_cycle;Signal;HPM_P1;HPM_P2
2021/12/06 00:00:58;;;;;;;6.30;3.73;;;;;;;0.79;100.00;94376.28;4996740;28;20178;-65
2021/12/06 00:03:35;;;;;;;5.77;4.10;;;;;;;0.79;100.00;94373.59;4997240;28;20177;-65
2021/12/06 00:06:00;;;;;;;7.50;3.80;;;;;;;0.79;100.00;94368.22;4997076;28;20183;-66
2021/12/06 00:08:25;;;;;;;5.93;3.70;;;;;;;0.79;100.00;94368.22;4997189;28;20185;-65
2021/12/06 00:10:51;;;;;;;7.30;4.00;;;;;;;0.76;100.00;94370.88;4997325;28;20182;-71
2021/12/06 00:13:20;;;;;;;4.57;3.53;;;;;;;0.75;100.00;94372.00;4997245;28;20184;-72
2021/12/06 00:15:48;;;;;;;7.77;4.50;;;;;;;0.75;100.00;94380.06;4996554;28;20186;-72
2021/12/06 00:18:14;;;;;;;10.57;5.53;;;;;;;0.75;100.00;94388.09;4996656;28;20189;-73
2021/12/06 00:20:40;;;;;;;6.00;3.67;;;;;;;0.71;100.00;94381.91;4996369;28;20205;-73
2021/12/06 00:23:05;;;;;;;5.60;3.73;;;;;;;0.64;100.00;94390.69;4996518;28;20188;-73
2021/12/06 00:25:30;;;;;;;4.43;3.53;;;;;;;0.59;100.00;94391.00;4996466;28;20177;-74
2021/12/06 00:27:56;;;;;;;4.47;3.33;;;;;;;0.56;100.00;94394.41;4996882;28;20527;-74
2021/12/06 00:30:21;;;;;;;4.63;3.27;;;;;;;0.54;100.00;94394.00;4995969;28;20182;-72
2021/12/06 00:32:47;;;;;;;4.60;3.40;;;;;;;0.54;100.00;94398.59;4997329;28;20178;-73
2021/12/06 00:35:19;;;;;;;5.40;3.60;;;;;;;0.51;100.00;94405.44;4995038;28;20177;-74
2021/12/06 00:37:55;;;;;;;5.77;3.57;;;;;;;0.50;100.00;94398.53;4996213;28;20198;-74
2021/12/06 00:40:21;;;;;;;4.30;3.37;;;;;;;0.51;100.00;94410.81;4996770;28;20201;-75
2021/12/06 00:42:47;;;;;;;4.93;3.57;;;;;;;0.49;100.00;94402.38;4995988;28;20204;-74
2021/12/06 00:45:13;;;;;;;7.93;3.60;;;;;;;0.47;100.00;94409.25;4995821;28;20551;-76
2021/12/06 00:47:38;;;;;;;4.57;3.37;;;;;;;0.45;100.00;94411.50;4996136;28;20248;-66
2021/12/06 00:50:06;;;;;;;5.40;3.63;;;;;;;0.45;100.00;94406.13;4995872;28;20234;-69
2021/12/06 00:52:31;;;;;;;6.10;3.83;;;;;;;0.46;100.00;94413.84;4996018;28;20182;-69
2021/12/06 00:54:56;;;;;;;7.90;3.70;;;;;;;0.49;100.00;94415.00;4996303;28;20189;-69
2021/12/06 00:57:22;;;;;;;5.90;3.30;;;;;;;0.52;100.00;94423.13;4996558;28;20185;-67
2021/12/06 00:59:47;;;;;;;4.60;3.40;;;;;;;0.54;100.00;94423.53;4995597;28;20214;-68
2021/12/06 01:02:15;;;;;;;7.27;3.40;;;;;;;0.53;100.00;94427.34;4995831;28;20176;-67
2021/12/06 01:04:42;;;;;;;6.67;3.13;;;;;;;0.48;100.00;94427.69;4995737;28;20266;-66
2021/12/06 01:07:09;;;;;;;5.07;3.30;;;;;;;0.46;100.00;94424.56;4995551;28;20185;-66
2021/12/06 01:09:35;;;;;;;4.80;3.40;;;;;;;0.46;100.00;94429.94;4996044;28;20181;-72
2021/12/06 01:12:00;;;;;;;5.73;3.63;;;;;;;0.45;100.00;94431.09;4995398;28;20182;-71
2021/12/06 01:14:26;;;;;;;5.10;2.93;;;;;;;0.44;100.00;94426.06;4995559;28;20189;-71
2021/12/06 01:16:52;;;;;;;4.57;3.37;;;;;;;0.40;100.00;94426.00;4995690;28;20182;-73
2021/12/06 01:19:18;;;;;;;4.67;3.07;;;;;;;0.40;100.00;94436.75;4995045;28;20211;-69
2021/12/06 01:21:46;;;;;;;4.07;3.13;;;;;;;0.40;100.00;94442.13;4995817;28;20217;-69
2021/12/06 01:24:13;;;;;;;3.47;2.80;;;;;;;0.40;100.00;94439.44;4995247;28;20187;-69
2021/12/06 01:29:37;;;;;;;3.83;3.10;;;;;;;0.41;100.00;94443.69;4996282;28;20214;-64
2021/12/06 01:39:39;;;;;;;5.50;3.37;;;;;;;0.58;100.00;94461.94;4996285;28;20227;-64
2021/12/06 01:42:06;;;;;;;6.60;4.10;;;;;;;0.61;100.00;94460.47;4995136;28;20177;-69
2021/12/06 01:44:44;;;;;;;6.43;4.60;;;;;;;0.63;100.00;94464.31;4994906;28;20175;-75
2021/12/06 01:47:14;;;;;;;4.43;3.33;;;;;;;0.67;100.00;94462.47;4994616;28;20228;-68
2021/12/06 01:49:43;;;;;;;4.53;3.43;;;;;;;0.69;100.00;94462.84;4995551;28;20169;-68
2021/12/06 01:52:23;;;;;;;4.37;3.50;;;;;;;0.70;100.00;94472.47;4995432;28;20218;-69
2021/12/06 01:54:49;;;;;;;3.50;2.97;;;;;;;0.74;100.00;94473.31;4995307;28;20208;-68
2021/12/06 01:57:15;;;;;;;5.60;3.40;;;;;;;0.77;100.00;94472.59;4995157;28;20172;-69
2021/12/06 01:59:41;;;;;;;4.13;3.43;;;;;;;0.82;100.00;94474.16;4994636;28;20211;-68
2021/12/06 02:02:08;;;;;;;4.37;3.53;;;;;;;0.84;100.00;94478.03;4995637;28;20177;-74
2021/12/06 02:04:34;;;;;;;9.27;6.33;;;;;;;0.90;100.00;94475.78;4994675;28;20177;-68
2021/12/06 02:07:02;;;;;;;7.37;5.70;;;;;;;0.95;100.00;94470.88;4994362;28;20173;-68
2021/12/06 02:09:28;;;;;;;12.67;7.87;;;;;;;0.99;100.00;94474.41;4994754;28;20630;-68
2021/12/06 02:11:55;;;;;;;11.70;8.07;;;;;;;1.01;100.00;94471.31;4995858;28;20187;-67
2021/12/06 02:14:30;;;;;;;13.50;9.37;;;;;;;1.05;100.00;94478.31;4995712;28;20196;-67
2021/12/06 02:17:06;;;;;;;14.97;10.33;;;;;;;1.06;100.00;94485.22;4994880;28;20172;-67
2021/12/06 02:19:37;;;;;;;20.27;11.17;;;;;;;1.10;100.00;94485.28;4994984;28;20227;-65
2021/12/06 02:22:03;;;;;;;17.17;10.83;;;;;;;1.11;100.00;94484.91;4994850;28;20248;-61
2021/12/06 02:24:31;;;;;;;15.27;10.57;;;;;;;1.13;100.00;94485.31;4993802;28;20174;-59
2021/12/06 02:26:59;;;;;;;18.33;11.37;;;;;;;1.15;100.00;94483.03;4994331;28;20267;-61
2021/12/06 02:29:24;;;;;;;18.87;11.77;;;;;;;1.17;100.00;94485.38;4993779;28;20216;-61
2021/12/06 02:31:51;;;;;;;16.87;11.57;;;;;;;1.15;100.00;94483.03;4994026;28;20190;-61
2021/12/06 02:34:17;;;;;;;21.00;12.60;;;;;;;1.15;100.00;94485.72;4993785;28;20246;-61
2021/12/06 02:36:45;;;;;;;17.00;11.00;;;;;;;1.16;100.00;94484.59;4994228;28;20277;-61
2021/12/06 02:39:14;;;;;;;19.80;12.63;;;;;;;1.18;100.00;94487.69;4993744;28;20200;-68
2021/12/06 02:41:40;;;;;;;20.13;12.70;;;;;;;1.19;100.00;94491.91;4993946;28;20211;-62
2021/12/06 02:44:05;;;;;;;16.83;12.37;;;;;;;1.20;100.00;94493.47;4994142;28;20200;-62
2021/12/06 02:46:31;;;;;;;19.83;13.77;;;;;;;1.23;100.00;94500.81;4993744;28;20232;-61
2021/12/06 02:48:56;;;;;;;21.23;13.53;;;;;;;1.25;100.00;94495.84;4994406;28;20181;-61
2021/12/06 02:51:24;;;;;;;21.87;13.17;;;;;;;1.25;100.00;94498.53;4994000;28;20176;-62
2021/12/06 02:53:50;;;;;;;18.07;11.90;;;;;;;1.23;100.00;94506.19;4995539;28;20174;-62
2021/12/06 02:56:39;;;;;;;17.30;12.23;;;;;;;1.26;100.00;94499.28;4994831;28;20200;-68
2021/12/06 02:59:09;;;;;;;17.83;11.80;;;;;;;1.27;100.00;94498.94;4992822;28;20212;-66
2021/12/06 03:01:48;;;;;;;19.93;12.50;;;;;;;1.29;100.00;94504.72;4994405;28;20258;-64
2021/12/06 03:04:13;;;;;;;16.97;11.67;;;;;;;1.31;100.00;94507.81;4993791;28;20166;-65
2021/12/06 03:06:42;;;;;;;17.83;11.37;;;;;;;1.32;100.00;94511.28;4993643;28;20187;-65
2021/12/06 03:09:33;;;;;;;19.47;12.30;;;;;;;1.34;100.00;94515.16;4993738;28;20188;-65
2021/12/06 03:12:02;;;;;;;17.67;11.53;;;;;;;1.35;100.00;94514.00;4994073;28;20182;-63
2021/12/06 03:14:34;;;;;;;19.77;11.97;;;;;;;1.35;100.00;94522.06;4994030;28;20243;-67
2021/12/06 03:17:02;;;;;;;17.57;11.83;;;;;;;1.36;100.00;94504.81;4993946;28;20179;-63
2021/12/06 03:19:28;;;;;;;17.30;11.40;;;;;;;1.37;100.00;94516.31;4993281;28;20225;-64
2021/12/06 03:21:54;;;;;;;17.73;12.50;;;;;;;1.36;100.00;94528.22;4993631;28;20212;-64
2021/12/06 03:24:19;;;;;;;16.73;11.70;;;;;;;1.35;100.00;94529.38;4994330;28;20173;-64
2021/12/06 03:26:46;;;;;;;18.97;11.93;;;;;;;1.27;100.00;94528.50;4993480;28;20177;-63
2021/12/06 03:29:12;;;;;;;21.13;11.97;;;;;;;1.22;100.00;94531.53;4993613;28;20184;-64
2021/12/06 03:31:38;;;;;;;18.63;12.10;;;;;;;1.22;100.00;94531.53;4993760;28;20218;-63
2021/12/06 03:34:05;;;;;;;18.23;11.70;;;;;;;1.22;100.00;94525.34;4993749;28;20186;-72
2021/12/06 03:36:35;;;;;;;18.27;12.30;;;;;;;1.20;100.00;94533.78;4993569;28;20186;-62
2021/12/06 03:39:04;;;;;;;18.20;11.23;;;;;;;1.18;100.00;94536.09;4993660;28;20205;-62
2021/12/06 03:41:30;;;;;;;19.50;11.77;;;;;;;1.18;100.00;94540.66;4993700;28;20251;-62
2021/12/06 03:43:57;;;;;;;17.77;11.13;;;;;;;1.16;100.00;94537.59;4993742;28;20179;-62
2021/12/06 03:46:25;;;;;;;15.43;10.47;;;;;;;1.12;100.00;94542.91;4993354;28;20298;-62
2021/12/06 03:48:50;;;;;;;14.90;10.50;;;;;;;1.12;100.00;94542.91;4993247;28;20171;-62
2021/12/06 03:51:16;;;;;;;16.73;10.37;;;;;;;1.11;100.00;94546.75;4993749;28;20175;-71
2021/12/06 03:53:42;;;;;;;17.73;11.50;;;;;;;1.12;100.00;94552.88;4993445;28;20181;-63
2021/12/06 03:56:07;;;;;;;17.23;11.70;;;;;;;1.12;100.00;94550.97;4993593;28;20173;-63
2021/12/06 03:58:34;;;;;;;15.17;10.83;;;;;;;1.15;100.00;94552.16;4993236;28;20292;-63
2021/12/06 04:01:02;;;;;;;17.47;10.90;;;;;;;1.15;100.00;94558.31;4993633;28;20189;-63
2021/12/06 04:03:28;;;;;;;18.13;11.00;;;;;;;1.21;100.00;94556.06;4993589;28;20303;-63
2021/12/06 04:05:55;;;;;;;16.60;10.60;;;;;;;1.24;100.00;94556.09;4993771;28;20189;-63
2021/12/06 04:08:20;;;;;;;16.17;10.80;;;;;;;1.28;100.00;94558.88;4993361;28;20175;-63
2021/12/06 04:10:46;;;;;;;12.97;9.70;;;;;;;1.30;100.00;94570.78;4997079;28;20189;-67
2021/12/06 04:13:11;;;;;;;15.50;10.17;;;;;;;1.34;100.00;94570.84;4997237;28;20177;-72
2021/12/06 04:15:40;;;;;;;14.50;10.17;;;;;;;1.39;100.00;94575.91;4997303;28;20208;-72
2021/12/06 04:18:05;;;;;;;13.57;9.57;;;;;;;1.37;100.00;94576.25;4996883;28;20184;-70
2021/12/06 04:20:31;;;;;;;15.93;10.20;;;;;;;1.37;100.00;94576.25;4998046;28;20198;-70
2021/12/06 04:22:57;;;;;;;14.97;10.47;;;;;;;1.38;100.00;94580.50;4996932;28;20174;-71
2021/12/06 04:25:22;;;;;;;15.60;10.80;;;;;;;1.38;100.00;94577.81;4997091;28;20179;-70
2021/12/06 04:27:54;;;;;;;16.13;10.77;;;;;;;1.39;100.00;94582.06;4997582;28;20181;-64
2021/12/06 04:30:22;;;;;;;16.33;11.03;;;;;;;1.41;100.00;94585.16;4997943;28;20154;-61
2021/12/06 04:32:49;;;;;;;13.60;10.60;;;;;;;1.44;100.00;94581.75;4996509;28;20189;-61
2021/12/06 04:35:15;;;;;;;18.27;11.83;;;;;;;1.43;100.00;94588.25;4997284;28;20184;-61
2021/12/06 04:37:40;;;;;;;16.80;11.60;;;;;;;1.42;100.00;94586.69;4996373;28;20357;-63
2021/12/06 04:40:07;;;;;;;14.97;10.50;;;;;;;1.39;100.00;94595.50;4996786;28;20227;-64
2021/12/06 04:42:32;;;;;;;17.10;11.73;;;;;;;1.39;100.00;94595.50;4996033;28;20233;-63
2021/12/06 04:44:58;;;;;;;17.40;11.23;;;;;;;1.41;100.00;94592.44;4995960;28;20185;-63
2021/12/06 04:47:23;;;;;;;18.83;11.73;;;;;;;1.41;100.00;94601.28;4995536;28;20226;-64
2021/12/06 04:49:48;;;;;;;22.00;13.60;;;;;;;1.41;100.00;94603.19;4996703;28;20220;-66
2021/12/06 04:52:15;;;;;;;19.17;12.83;;;;;;;1.40;100.00;94591.69;4996112;28;20182;-66
2021/12/06 04:54:45;;;;;;;18.37;12.53;;;;;;;1.42;100.00;94596.69;4996079;28;20193;-65
2021/12/06 04:57:16;;;;;;;16.20;11.93;;;;;;;1.41;100.00;94603.19;4995754;28;20252;-67
2021/12/06 04:59:45;;;;;;;17.27;12.33;;;;;;;1.40;100.00;94617.78;4995857;28;20220;-66
2021/12/06 05:02:15;;;;;;;22.00;14.43;;;;;;;1.40;100.00;94613.19;4995544;28;20190;-64
2021/12/06 05:04:47;;;;;;;22.40;14.80;;;;;;;1.42;100.00;94618.97;4995790;28;20216;-63
2021/12/06 05:07:20;;;;;;;22.77;13.50;;;;;;;1.41;100.00;94630.88;4996117;28;20182;-60
2021/12/06 05:09:48;;;;;;;23.80;14.87;;;;;;;1.44;100.00;94630.16;4996328;28;20176;-61
2021/12/06 05:12:16;;;;;;;24.43;14.27;;;;;;;1.45;100.00;94633.63;4995240;28;20181;-61
2021/12/06 05:14:42;;;;;;;22.00;14.47;;;;;;;1.45;100.00;94629.00;4995511;28;20191;-61
2021/12/06 05:17:08;;;;;;;20.83;13.23;;;;;;;1.47;100.00;94637.50;4995703;28;20176;-62
2021/12/06 05:19:34;;;;;;;21.17;13.67;;;;;;;1.49;100.00;94637.88;4996009;28;20305;-61
2021/12/06 05:22:00;;;;;;;20.47;13.23;;;;;;;1.52;100.00;94637.16;4994816;28;20187;-70
2021/12/06 05:24:25;;;;;;;18.90;13.73;;;;;;;1.50;100.00;94633.28;4995437;28;20354;-63
2021/12/06 05:26:51;;;;;;;20.73;13.30;;;;;;;1.46;100.00;94638.59;4995340;28;20174;-63
2021/12/06 05:29:25;;;;;;;19.73;13.47;;;;;;;1.44;100.00;94645.50;4995020;28;20193;-64
2021/12/06 05:31:55;;;;;;;21.37;13.53;;;;;;;1.43;100.00;94644.75;4995673;28;20167;-64
2021/12/06 05:34:30;;;;;;;23.67;14.63;;;;;;;1.41;100.00;94647.00;4995800;28;20203;-63
2021/12/06 05:36:56;;;;;;;19.97;13.07;;;;;;;1.42;100.00;94653.91;4994795;28;20170;-63
2021/12/06 05:39:22;;;;;;;23.00;13.33;;;;;;;1.42;100.00;94648.53;4994715;28;20229;-68
2021/12/06 05:41:48;;;;;;;19.47;12.47;;;;;;;1.41;100.00;94652.38;4995179;28;20220;-64
2021/12/06 05:44:13;;;;;;;23.50;12.80;;;;;;;1.41;100.00;94657.75;4994770;28;20263;-65
2021/12/06 05:46:38;;;;;;;22.93;13.50;;;;;;;1.37;100.00;94656.94;4995511;28;20221;-64
2021/12/06 05:49:04;;;;;;;22.33;13.03;;;;;;;1.35;100.00;94669.94;4995423;28;20178;-64
2021/12/06 05:51:30;;;;;;;22.03;13.67;;;;;;;1.37;100.00;94670.38;4994925;28;20182;-66
2021/12/06 05:53:55;;;;;;;20.60;12.70;;;;;;;1.39;100.00;94675.41;4995280;28;20182;-68
2021/12/06 05:56:21;;;;;;;18.43;12.27;;;;;;;1.36;100.00;94676.13;4994847;28;20225;-67
2021/12/06 05:58:46;;;;;;;19.30;13.10;;;;;;;1.36;100.00;94687.66;4995029;28;20199;-68
2021/12/06 06:01:13;;;;;;;19.07;12.20;;;;;;;1.37;100.00;94688.41;4994444;28;20235;-69
2021/12/06 06:03:39;;;;;;;20.00;12.70;;;;;;;1.37;100.00;94693.78;4995621;28;20189;-71
2021/12/06 06:06:04;;;;;;;20.47;12.27;;;;;;;1.36;100.00;94694.94;4994369;28;20179;-72
2021/12/06 06:08:30;;;;;;;21.07;11.87;;;;;;;1.36;100.00;94698.41;4994997;28;20181;-68
2021/12/06 06:10:55;;;;;;;18.53;11.93;;;;;;;1.33;100.00;94698.34;4994741;28;20270;-72
2021/12/06 06:13:21;;;;;;;19.63;12.07;;;;;;;1.32;100.00;94707.56;4994283;28;20178;-71
2021/12/06 06:15:49;;;;;;;19.57;12.60;;;;;;;1.33;100.00;94720.66;4993832;28;20178;-73
2021/12/06 06:18:15;;;;;;;19.00;11.87;;;;;;;1.36;100.00;94711.88;4994300;28;20178;-72
2021/12/06 06:20:48;;;;;;;17.20;11.03;;;;;;;1.41;100.00;94714.22;4994426;28;20612;-63
2021/12/06 06:23:13;;;;;;;21.03;12.87;;;;;;;1.45;100.00;94723.13;4994021;28;20178;-62
2021/12/06 06:25:39;;;;;;;17.73;11.10;;;;;;;1.47;100.00;94725.47;4994392;28;20243;-61
2021/12/06 06:28:05;;;;;;;19.60;12.00;;;;;;;1.45;100.00;94744.63;4994260;28;20178;-62
2021/12/06 06:30:31;;;;;;;18.27;12.13;;;;;;;1.46;100.00;94738.13;4993961;28;20263;-61
2021/12/06 06:32:57;;;;;;;22.70;12.47;;;;;;;1.47;100.00;94747.75;4992830;28;20206;-62
2021/12/06 06:35:24;;;;;;;20.87;12.47;;;;;;;1.46;100.00;94748.13;4993973;28;20183;-61
2021/12/06 06:37:50;;;;;;;23.40;12.77;;;;;;;1.45;100.00;94755.41;4993832;28;20643;-66
2021/12/06 06:40:15;;;;;;;20.00;13.27;;;;;;;1.43;100.00;94752.31;4993873;28;20210;-63
2021/12/06 06:42:42;;;;;;;23.20;12.37;;;;;;;1.44;100.00;94753.84;4993714;28;20195;-60
2021/12/06 06:45:10;;;;;;;21.90;12.37;;;;;;;1.42;100.00;94764.19;4994146;28;20216;-61
2021/12/06 06:47:39;;;;;;;21.10;12.13;;;;;;;1.40;100.00;94763.00;4993201;28;20225;-61
2021/12/06 06:50:05;;;;;;;21.53;12.27;;;;;;;1.44;100.00;94763.81;4993607;28;20172;-60
2021/12/06 06:52:30;;;;;;;21.57;13.43;;;;;;;1.45;100.00;94766.16;4993485;28;20272;-60
2021/12/06 06:54:56;;;;;;;24.07;13.20;;;;;;;1.47;100.00;94768.50;4994000;28;20699;-61
2021/12/06 06:57:22;;;;;;;22.60;13.00;;;;;;;1.50;100.00;94775.84;4993297;28;20182;-59
2021/12/06 06:59:48;;;;;;;21.03;12.80;;;;;;;1.52;100.00;94777.03;4993454;28;20304;-58
2021/12/06 07:02:14;;;;;;;20.13;13.10;;;;;;;1.54;100.00;94785.53;4993640;28;20177;-59
2021/12/06 07:04:40;;;;;;;20.03;12.40;;;;;;;1.56;100.00;94787.84;4993304;28;20232;-59
2021/12/06 07:07:05;;;;;;;24.23;14.07;;;;;;;1.55;100.00;94787.06;4993291;28;20182;-59
2021/12/06 07:09:30;;;;;;;24.50;13.60;;;;;;;1.56;100.00;94785.94;4993861;28;20184;-59
2021/12/06 07:11:58;;;;;;;24.30;12.97;;;;;;;1.55;100.00;94791.66;4993798;28;20195;-61
2021/12/06 07:14:23;;;;;;;21.50;13.20;;;;;;;1.59;100.00;94803.25;4993832;28;20224;-61
2021/12/06 07:16:49;;;;;;;23.90;14.07;;;;;;;1.59;100.00;94801.34;4993851;28;20178;-60
2021/12/06 07:19:14;;;;;;;22.23;13.80;;;;;;;1.58;100.00;94802.50;4993260;28;20238;-61
2021/12/06 07:21:40;;;;;;;25.13;14.43;;;;;;;1.61;100.00;94817.13;4993480;28;20178;-61
2021/12/06 07:24:05;;;;;;;25.97;14.20;;;;;;;1.62;100.00;94819.47;4993289;28;20212;-61
2021/12/06 07:26:31;;;;;;;26.53;14.33;;;;;;;1.66;100.00;94819.50;4993971;28;20187;-61
2021/12/06 07:28:57;;;;;;;23.00;14.43;;;;;;;1.70;100.00;94815.75;4993196;28;20203;-61
2021/12/06 07:31:24;;;;;;;26.23;14.70;;;;;;;1.73;100.00;94817.72;4977044;28;20180;-64
2021/12/06 07:33:50;;;;;;;25.73;14.27;;;;;;;1.71;100.00;94822.66;4993283;28;20185;-61
2021/12/06 07:36:16;;;;;;;29.23;14.47;;;;;;;1.71;100.00;94833.44;4993311;28;20201;-64
2021/12/06 07:38:42;;;;;;;23.47;13.73;;;;;;;1.70;100.00;94823.81;4993774;28;20176;-64
2021/12/06 07:41:11;;;;;;;22.20;14.30;;;;;;;1.73;100.00;94827.69;4993025;28;20190;-64
2021/12/06 07:43:37;;;;;;;23.17;14.27;;;;;;;1.70;100.00;94839.97;4992977;28;20190;-64
2021/12/06 07:46:05;;;;;;;26.90;15.17;;;;;;;1.72;100.00;94835.00;4996779;28;20178;-64
2021/12/06 07:48:30;;;;;;;26.93;15.57;;;;;;;1.71;100.00;94836.13;4997397;28;20183;-64
2021/12/06 07:50:57;;;;;;;23.23;13.83;;;;;;;1.76;100.00;94845.81;4997061;28;20201;-60
2021/12/06 07:53:22;;;;;;;25.33;14.43;;;;;;;1.81;100.00;94845.50;4996734;28;20188;-59
2021/12/06 07:55:48;;;;;;;20.83;13.00;;;;;;;1.80;100.00;94843.94;4996636;28;20189;-59
2021/12/06 07:58:13;;;;;;;23.83;13.37;;;;;;;1.79;100.00;94840.47;4996722;28;20202;-58
2021/12/06 08:00:44;;;;;;;23.90;12.90;;;;;;;1.78;100.00;94848.94;4996736;28;20214;-59
2021/12/06 08:03:10;;;;;;;23.67;13.57;;;;;;;1.75;100.00;94845.03;4997312;28;20222;-59
2021/12/06 08:05:38;;;;;;;25.00;14.13;;;;;;;1.80;100.00;94842.06;4996637;28;20184;-58
2021/12/06 08:08:11;;;;;;;24.50;13.80;;;;;;;1.88;100.00;94843.72;4996007;28;20178;-60
2021/12/06 08:10:47;;;;;;;23.73;13.77;;;;;;;1.93;100.00;94846.09;4997356;28;20194;-58
2021/12/06 08:13:17;;;;;;;23.03;14.00;;;;;;;1.97;100.00;94852.28;4996458;28;20213;-58
2021/12/06 08:15:43;;;;;;;24.17;14.60;;;;;;;2.02;100.00;94851.22;4996610;28;20275;-58
2021/12/06 08:18:09;;;;;;;22.67;14.90;;;;;;;2.07;100.00;94858.97;4996455;28;20302;-58
2021/12/06 08:20:35;;;;;;;25.13;15.13;;;;;;;2.11;100.00;94854.44;4996489;28;20229;-58
2021/12/06 08:23:01;;;;;;;29.33;17.03;;;;;;;2.18;100.00;94863.38;4996460;28;20175;-58
2021/12/06 08:25:26;;;;;;;22.57;14.43;;;;;;;2.13;100.00;94871.78;4996108;28;20234;-58
2021/12/06 08:27:52;;;;;;;23.07;14.60;;;;;;;2.17;100.00;94867.22;4996097;28;20184;-57
2021/12/06 08:30:22;;;;;;;24.93;14.43;;;;;;;2.16;100.00;94875.66;4995848;28;20176;-64
2021/12/06 08:32:52;;;;;;;22.60;14.43;;;;;;;2.16;100.00;94875.66;4995923;28;20184;-64
2021/12/06 08:35:18;;;;;;;22.83;13.70;;;;;;;2.23;100.00;94878.47;4995790;28;20199;-64
2021/12/06 08:37:45;;;;;;;23.63;14.00;;;;;;;2.22;100.00;94877.69;4996283;28;20180;-65
2021/12/06 08:40:10;;;;;;;24.47;15.53;;;;;;;2.24;100.00;94877.31;4995832;28;20199;-65
2021/12/06 08:42:36;;;;;;;25.80;14.60;;;;;;;2.26;100.00;94883.13;4995582;28;20273;-65
2021/12/06 08:45:03;;;;;;;24.67;14.57;;;;;;;2.27;100.00;94882.78;4995702;28;20172;-61
2021/12/06 08:47:28;;;;;;;25.70;14.20;;;;;;;2.29;100.00;94890.47;4995237;28;20224;-61
2021/12/06 08:49:54;;;;;;;31.47;19.90;;;;;;;2.34;100.00;94874.75;4996398;28;20186;-59
2021/12/06 08:52:19;;;;;;;21.77;14.33;;;;;;;2.36;100.00;94880.56;4995733;28;20186;-59
2021/12/06 08:54:45;;;;;;;23.20;13.93;;;;;;;2.42;100.00;94884.53;4995616;28;20176;-58
2021/12/06 08:57:11;;;;;;;23.10;14.33;;;;;;;2.53;100.00;94880.06;4994508;28;20180;-60
2021/12/06 08:59:36;;;;;;;22.60;14.07;;;;;;;2.50;100.00;94896.94;4994958;28;20215;-58
2021/12/06 09:02:02;;;;;;;21.67;13.63;;;;;;;2.50;100.00;94896.94;4995579;28;20182;-59
2021/12/06 09:04:33;;;;;;;22.23;13.93;;;;;;;2.45;100.00;94902.63;4995424;28;20192;-70
2021/12/06 09:07:01;;;;;;;20.83;13.30;;;;;;;2.39;100.00;94909.50;4996137;28;20180;-60
2021/12/06 09:09:27;;;;;;;23.00;14.97;;;;;;;2.40;100.00;94913.72;4995336;28;20207;-60
2021/12/06 09:11:54;;;;;;;21.93;12.90;;;;;;;2.44;100.00;94919.94;4996057;28;20176;-61
2021/12/06 09:14:21;;;;;;;19.40;12.93;;;;;;;2.40;100.00;94919.13;4995358;28;20180;-61
2021/12/06 09:16:47;;;;;;;19.17;13.10;;;;;;;2.49;100.00;94916.16;4995488;28;20184;-60
2021/12/06 09:19:14;;;;;;;20.23;13.33;;;;;;;2.48;100.00;94915.38;4995079;28;20207;-61
2021/12/06 09:21:40;;;;;;;21.83;12.90;;;;;;;2.47;100.00;94923.81;4995170;28;20230;-59
2021/12/06 09:24:15;;;;;;;23.47;13.43;;;;;;;2.46;100.00;94914.97;4995458;28;20176;-59
2021/12/06 09:26:40;;;;;;;21.10;12.67;;;;;;;2.36;100.00;94912.91;4995632;28;20206;-61
2021/12/06 09:29:06;;;;;;;20.87;12.87;;;;;;;2.49;100.00;94922.34;4995369;28;20204;-60
2021/12/06 09:31:32;;;;;;;21.80;13.90;;;;;;;2.62;100.00;94915.59;4994811;28;20183;-61
2021/12/06 09:33:59;;;;;;;17.77;12.70;;;;;;;2.63;100.00;94916.38;4994635;28;20207;-61
2021/12/06 09:36:25;;;;;;;21.70;13.53;;;;;;;2.65;100.00;94920.25;4994881;28;20230;-61
2021/12/06 09:38:51;;;;;;;22.27;13.13;;;;;;;2.74;100.00;94926.13;4994749;28;20172;-61
2021/12/06 09:41:25;;;;;;;19.20;12.67;;;;;;;2.72;100.00;94920.34;4995666;28;20183;-62
2021/12/06 09:43:53;;;;;;;25.13;14.40;;;;;;;2.81;100.00;94923.53;4995357;28;20176;-70
2021/12/06 09:46:19;;;;;;;17.57;11.53;;;;;;;2.75;100.00;94908.84;4994574;28;20205;-70
2021/12/06 09:48:46;;;;;;;20.00;11.53;;;;;;;2.75;100.00;94908.84;4994397;28;20191;-70
2021/12/06 09:51:21;;;;;;;19.40;12.30;;;;;;;2.81;100.00;94912.75;4995193;28;20195;-70
2021/12/06 09:53:48;;;;;;;16.37;11.07;;;;;;;2.88;100.00;94917.47;4995337;28;20171;-70
2021/12/06 09:56:18;;;;;;;19.53;12.00;;;;;;;2.96;100.00;94911.78;4994576;28;20176;-71
2021/12/06 09:58:44;;;;;;;18.17;11.57;;;;;;;2.97;100.00;94917.97;4994518;28;20196;-61
2021/12/06 10:01:34;;;;;;;18.97;11.67;;;;;;;2.95;100.00;94910.25;4994390;28;20211;-70
2021/12/06 10:04:01;;;;;;;18.63;12.13;;;;;;;2.99;100.00;94913.75;4994761;28;20203;-70
2021/12/06 10:06:28;;;;;;;23.20;13.13;;;;;;;3.01;100.00;94911.50;4995200;28;20199;-70
2021/12/06 10:08:56;;;;;;;18.30;12.17;;;;;;;2.93;100.00;94920.63;4994312;28;20172;-70
2021/12/06 10:11:23;;;;;;;21.37;11.73;;;;;;;2.94;100.00;94919.47;4994518;28;20187;-70
2021/12/06 10:13:49;;;;;;;19.40;11.37;;;;;;;3.01;100.00;94916.09;4994730;28;20180;-70
2021/12/06 10:16:16;;;;;;;16.90;10.87;;;;;;;3.08;100.00;94911.56;4994267;28;20271;-58
2021/12/06 10:18:42;;;;;;;16.77;11.50;;;;;;;3.07;100.00;94904.59;4994660;28;20180;-70
2021/12/06 10:21:08;;;;;;;20.30;12.07;;;;;;;3.23;100.00;94907.91;4994315;28;20204;-60
2021/12/06 10:23:37;;;;;;;24.50;15.40;;;;;;;3.18;100.00;94915.53;4993763;28;20230;-60
2021/12/06 10:26:05;;;;;;;23.13;14.13;;;;;;;3.18;100.00;94910.91;4994080;28;20176;-60
2021/12/06 10:28:31;;;;;;;16.37;10.97;;;;;;;3.05;100.00;94923.09;4994557;28;20202;-60
2021/12/06 10:31:04;;;;;;;17.40;11.37;;;;;;;3.00;100.00;94925.34;4994643;28;20247;-60
2021/12/06 10:33:33;;;;;;;19.27;12.53;;;;;;;2.91;100.00;94922.91;4994516;28;20274;-60
2021/12/06 10:36:06;;;;;;;17.73;11.50;;;;;;;2.78;100.00;94924.28;4994114;28;20191;-58
2021/12/06 10:38:34;;;;;;;17.00;10.90;;;;;;;2.77;100.00;94924.66;4994362;28;20199;-59
2021/12/06 10:41:29;;;;;;;19.57;12.40;;;;;;;2.69;100.00;94931.84;4993865;28;20297;-59
2021/12/06 10:44:00;;;;;;;20.03;11.50;;;;;;;2.65;100.00;94922.94;4988105;28;20192;-59
2021/12/06 10:46:28;;;;;;;18.50;11.43;;;;;;;2.63;100.00;94927.91;4993486;28;20227;-59
2021/12/06 10:48:59;;;;;;;19.23;12.47;;;;;;;2.56;100.00;94925.13;4993524;28;20184;-59
2021/12/06 10:51:27;;;;;;;22.10;13.30;;;;;;;2.49;100.00;94930.44;4993349;28;20231;-59
2021/12/06 10:54:02;;;;;;;19.60;12.23;;;;;;;2.49;100.00;94916.97;4954157;29;20217;-59
2021/12/06 10:56:48;;;;;;;26.07;13.80;;;;;;;2.57;100.00;94923.19;4938345;29;20231;-63
2021/12/06 10:59:19;;;;;;;20.70;12.97;;;;;;;2.61;100.00;94930.22;4938281;29;20226;-63
2021/12/06 11:01:48;;;;;;;22.30;13.30;;;;;;;2.60;100.00;94934.06;4938309;29;20193;-63
2021/12/06 11:04:17;;;;;;;23.47;13.33;;;;;;;2.67;100.00;94931.47;4937980;29;20212;-65
2021/12/06 11:06:45;;;;;;;24.10;14.40;;;;;;;2.70;100.00;94928.00;4938032;29;20272;-63
2021/12/06 11:09:15;;;;;;;19.60;12.80;;;;;;;2.69;100.00;94937.25;4938313;29;20193;-62
2021/12/06 11:11:43;;;;;;;20.93;13.53;;;;;;;2.66;100.00;94931.81;4937923;29;20185;-69
2021/12/06 11:14:13;;;;;;;23.93;13.53;;;;;;;2.63;100.00;94938.69;4938342;29;20265;-70
2021/12/06 11:16:47;;;;;;;20.17;12.73;;;;;;;2.67;100.00;94934.16;4938018;29;20244;-70
2021/12/06 11:19:18;;;;;;;21.73;13.87;;;;;;;2.70;100.00;94933.41;4939354;29;20296;-71
2021/12/06 11:21:59;;;;;;;21.30;12.47;;;;;;;2.70;100.00;94941.47;4941630;29;20177;-70
2021/12/06 11:24:29;;;;;;;19.97;12.67;;;;;;;2.68;100.00;94937.59;4957259;28;20256;-71
2021/12/06 11:27:05;;;;;;;20.13;12.80;;;;;;;2.60;100.00;94944.81;4998011;28;20184;-70
2021/12/06 11:29:38;;;;;;;19.70;11.80;;;;;;;2.57;100.00;94939.38;4997124;28;20226;-70
2021/12/06 11:32:33;;;;;;;21.27;12.87;;;;;;;2.61;100.00;94935.59;4997326;28;20206;-58